createdAt,value
2022-08-30T00:03:31.389Z,88.65
2022-08-30T00:08:32.223Z,87.96
2022-08-30T00:13:33.426Z,87.68
2022-08-30T00:18:35.983Z,87.58
2022-08-30T00:23:37.321Z,87.25
2022-08-30T00:28:38.007Z,87.37
2022-08-30T00:33:40.518Z,88.93
2022-08-30T00:38:41.140Z,87.90
2022-08-30T00:43:41.825Z,87.64
2022-08-30T00:48:48.785Z,89.07
2022-08-30T00:53:52.136Z,88.55
2022-08-30T00:58:56.373Z,88.70
2022-08-30T01:03:58.881Z,89.76
2022-08-30T01:08:59.982Z,88.70
2022-08-30T01:14:02.200Z,89.27
2022-08-30T01:19:05.303Z,88.79
2022-08-30T01:24:10.093Z,88.63
2022-08-30T01:29:14.402Z,89.35
2022-08-30T01:34:15.032Z,90.30
2022-08-30T01:39:18.671Z,90.63
2022-08-30T01:44:19.290Z,89.57
2022-08-30T01:49:27.402Z,89.40
2022-08-30T01:54:33.386Z,90.00
2022-08-30T01:59:40.791Z,91.13
2022-08-30T02:04:41.873Z,91.45
2022-08-30T02:09:44.174Z,92.48
2022-08-30T02:14:46.857Z,92.00
2022-08-30T02:19:47.623Z,92.21
2022-08-30T02:24:49.570Z,92.43
2022-08-30T02:29:50.230Z,91.42
2022-08-30T02:34:50.956Z,90.27
2022-08-30T02:39:53.367Z,89.48
2022-08-30T02:44:54.592Z,90.83
2022-08-30T02:49:55.201Z,90.79
2022-08-30T02:54:57.215Z,91.15
2022-08-30T02:59:58.632Z,91.58
2022-08-30T03:04:59.260Z,92.31
2022-08-30T03:10:01.221Z,92.70
2022-08-30T03:15:01.886Z,92.13
2022-08-30T03:20:02.953Z,91.64
2022-08-30T03:25:05.811Z,91.43
2022-08-30T03:30:08.401Z,92.29
2022-08-30T03:35:10.107Z,91.72
2022-08-30T03:40:14.486Z,90.76
2022-08-30T03:45:18.238Z,90.40
2022-08-30T03:50:18.964Z,91.37
2022-08-30T03:55:21.117Z,92.29
2022-08-30T04:00:22.265Z,92.21
2022-08-30T04:05:22.879Z,90.66
2022-08-30T04:10:25.021Z,91.80
2022-08-30T04:15:25.746Z,92.20
2022-08-30T04:20:27.358Z,93.64
2022-08-30T04:25:29.383Z,93.45
2022-08-30T04:30:30.022Z,94.54
2022-08-30T04:35:30.665Z,94.22
2022-08-30T04:40:32.738Z,93.85
2022-08-30T04:45:33.464Z,94.22
2022-08-30T04:50:34.819Z,93.10
2022-08-30T04:55:46.704Z,93.42
2022-08-30T05:00:47.387Z,93.30
2022-08-30T05:05:49.191Z,92.12
2022-08-30T05:10:53.109Z,92.35
2022-08-30T05:15:53.716Z,93.17
2022-08-30T05:21:05.110Z,92.18
2022-08-30T05:26:09.914Z,92.24
2022-08-30T05:31:16.121Z,91.42
2022-08-30T05:36:19.448Z,91.40
2022-08-30T05:41:22.863Z,90.69
2022-08-30T05:46:29.794Z,90.64
2022-08-30T05:51:32.046Z,90.00
2022-08-30T05:56:37.235Z,89.60
2022-08-30T06:01:40.599Z,88.53
2022-08-30T06:06:43.301Z,88.11
2022-08-30T06:11:46.657Z,87.87
2022-08-30T06:16:47.442Z,88.03
2022-08-30T06:21:50.575Z,87.25
2022-08-30T06:26:52.615Z,86.47
2022-08-30T06:31:53.339Z,85.87
2022-08-30T06:36:54.974Z,85.34
2022-08-30T06:41:56.902Z,84.83
2022-08-30T06:47:00.860Z,84.67
2022-08-30T06:52:01.659Z,83.81
2022-08-30T06:57:05.675Z,83.47
2022-08-30T07:02:07.329Z,82.96
2022-08-30T07:07:11.716Z,82.40
2022-08-30T07:12:15.487Z,81.79
2022-08-30T07:17:34.899Z,81.29
2022-08-30T07:22:35.803Z,80.49
2022-08-30T07:27:37.868Z,80.03
2022-08-30T07:32:39.009Z,77.72
2022-08-30T07:37:39.675Z,78.15
2022-08-30T07:42:41.939Z,77.57
2022-08-30T07:47:42.992Z,77.06
2022-08-30T07:52:43.714Z,77.13
2022-08-30T07:57:45.656Z,75.06
2022-08-30T08:02:46.321Z,74.75
2022-08-30T08:07:47.007Z,73.77
2022-08-30T08:12:49.662Z,72.94
2022-08-30T08:17:52.762Z,72.58
2022-08-30T08:22:53.696Z,70.76
2022-08-30T08:27:55.926Z,70.99
2022-08-30T08:32:57.892Z,69.09
2022-08-30T08:37:58.641Z,69.77
2022-08-30T08:43:06.107Z,69.54
2022-08-30T08:48:11.564Z,68.98
2022-08-30T08:53:51.462Z,66.36
2022-08-30T08:58:56.570Z,66.30
2022-08-30T09:03:59.159Z,65.95
2022-08-30T09:08:59.827Z,66.10
2022-08-30T09:14:01.830Z,65.32
2022-08-30T09:19:02.758Z,64.21
2022-08-30T09:24:08.659Z,63.13
2022-08-30T09:29:18.079Z,61.50
2022-08-30T09:34:20.827Z,61.36
2022-08-30T09:39:28.670Z,59.40
2022-08-30T09:44:38.772Z,59.22
2022-08-30T09:49:43.134Z,58.49
2022-08-30T09:54:58.811Z,57.61
2022-08-30T10:00:07.239Z,56.10
2022-08-30T10:05:16.446Z,53.96
2022-08-30T10:10:23.563Z,53.90
2022-08-30T10:15:30.898Z,53.14
2022-08-30T10:20:37.707Z,52.29
2022-08-30T10:25:44.816Z,53.15
2022-08-30T10:30:53.716Z,53.10
2022-08-30T10:35:57.659Z,54.48
2022-08-30T10:41:14.827Z,54.55
2022-08-30T10:46:20.778Z,53.80
2022-08-30T10:51:27.571Z,53.14
2022-08-30T10:56:30.399Z,49.96
2022-08-30T11:01:51.973Z,48.85
2022-08-30T11:07:09.840Z,47.78
2022-08-30T11:12:24.947Z,46.58
2022-08-30T11:17:32.660Z,45.96
2022-08-30T11:22:38.780Z,46.15
2022-08-30T11:27:41.995Z,44.09
2022-08-30T11:33:00.166Z,43.91
2022-08-30T11:38:11.905Z,45.34
2022-08-30T11:43:51.014Z,45.72
2022-08-30T11:48:56.869Z,46.91
2022-08-30T11:54:06.435Z,46.63
2022-08-30T11:59:18.987Z,48.66
2022-08-30T12:04:37.417Z,49.26
2022-08-30T12:10:05.819Z,48.84
2022-08-30T12:15:06.938Z,47.53
2022-08-30T12:20:21.289Z,44.38
2022-08-30T12:25:39.889Z,46.46
2022-08-30T12:30:41.383Z,51.11
2022-08-30T12:35:45.328Z,53.01
2022-08-30T12:40:54.589Z,54.83
2022-08-30T12:45:58.450Z,55.75
2022-08-30T12:51:10.937Z,56.19
2022-08-30T12:56:14.623Z,55.77
2022-08-30T13:01:19.840Z,54.28
2022-08-30T13:11:52.018Z,52.37
2022-08-30T13:17:06.935Z,49.41
2022-08-30T13:22:24.373Z,49.66
2022-08-30T13:27:30.161Z,48.84
2022-08-30T13:32:38.784Z,49.21
2022-08-30T13:37:49.997Z,49.51
2022-08-30T13:42:53.526Z,50.68
2022-08-30T13:47:55.872Z,50.04
2022-08-30T13:52:56.565Z,50.18
2022-08-30T13:57:58.571Z,50.10
2022-08-30T14:02:59.945Z,48.80
2022-08-30T14:08:01.171Z,47.91
2022-08-30T14:13:08.926Z,47.33
2022-08-30T14:18:13.500Z,46.69
2022-08-30T14:23:16.490Z,46.85
2022-08-30T14:28:18.702Z,46.52
2022-08-30T14:33:21.318Z,45.11
2022-08-30T14:38:21.945Z,45.23
2022-08-30T14:43:24.383Z,45.27
2022-08-30T14:48:25.303Z,45.44
2022-08-30T14:53:28.839Z,43.89
2022-08-30T14:58:31.006Z,43.64
2022-08-30T15:03:31.675Z,42.55
2022-08-30T15:08:32.400Z,43.12
2022-08-30T15:13:35.032Z,45.33
2022-08-30T15:18:35.823Z,45.80
2022-08-30T15:23:36.584Z,44.98
2022-08-30T15:28:39.567Z,45.16
2022-08-30T15:33:40.666Z,45.50
2022-08-30T15:38:45.006Z,47.01
2022-08-30T15:43:47.300Z,49.51
2022-08-30T15:48:48.005Z,50.16
2022-08-30T15:53:49.333Z,51.49
2022-08-30T15:58:53.010Z,51.63
2022-08-30T16:03:53.942Z,51.48
2022-08-30T16:08:54.604Z,50.75
2022-08-30T16:13:57.559Z,51.03
2022-08-30T16:18:58.559Z,51.09
2022-08-30T16:24:01.761Z,50.26
2022-08-30T16:29:05.319Z,51.07
2022-08-30T16:34:07.894Z,48.71
2022-08-30T16:39:12.695Z,49.89
2022-08-30T16:44:15.643Z,51.37
2022-08-30T16:49:18.491Z,52.36
2022-08-30T16:54:19.860Z,52.32
2022-08-30T16:59:22.162Z,49.81
2022-08-30T17:04:22.853Z,48.36
2022-08-30T17:09:23.457Z,47.77
2022-08-30T17:14:27.603Z,46.50
2022-08-30T17:19:29.302Z,47.66
2022-08-30T17:24:30.360Z,49.05
2022-08-30T17:29:32.640Z,52.26
2022-08-30T17:34:34.666Z,53.48
2022-08-30T17:39:35.561Z,55.69
2022-08-30T17:44:38.053Z,56.57
2022-08-30T17:49:42.965Z,57.79
2022-08-30T17:54:43.577Z,58.45
2022-08-30T17:59:46.122Z,59.74
2022-08-30T18:04:47.142Z,59.72
2022-08-30T18:09:47.774Z,61.33
2022-08-30T18:14:52.900Z,61.54
2022-08-30T18:19:55.064Z,63.16
2022-08-30T18:25:02.228Z,63.67
2022-08-30T18:30:07.004Z,64.18
2022-08-30T18:35:12.450Z,65.05
2022-08-30T18:40:18.764Z,64.72
2022-08-30T18:45:23.051Z,65.27
2022-08-30T18:50:23.698Z,65.97
2022-08-30T18:55:25.016Z,66.77
2022-08-30T19:00:27.177Z,65.13
2022-08-30T19:05:28.316Z,65.57
2022-08-30T19:10:32.907Z,66.34
2022-08-30T19:15:35.671Z,67.18
2022-08-30T19:20:36.345Z,67.85
2022-08-30T19:25:38.095Z,68.56
2022-08-30T19:30:41.309Z,69.58
2022-08-30T19:35:48.937Z,70.03
2022-08-30T19:40:54.710Z,70.56
2022-08-30T19:45:58.231Z,70.52
2022-08-30T19:50:59.013Z,70.39
2022-08-30T19:56:00.248Z,70.86
2022-08-30T20:01:10.562Z,71.94
2022-08-30T20:06:23.070Z,72.72
2022-08-30T20:11:23.731Z,73.23
2022-08-30T20:16:35.476Z,73.11
2022-08-30T20:21:38.784Z,73.94
2022-08-30T20:26:40.159Z,74.12
2022-08-30T20:31:42.090Z,74.88
2022-08-30T20:36:43.129Z,74.91
2022-08-30T20:41:44.490Z,75.18
2022-08-30T20:46:49.445Z,75.51
2022-08-30T20:51:54.302Z,76.77
2022-08-30T20:56:55.290Z,76.61
2022-08-30T21:01:58.169Z,76.82
2022-08-30T21:06:59.365Z,77.30
2022-08-30T21:12:00.013Z,76.96
2022-08-30T21:17:02.173Z,75.93
2022-08-30T21:22:03.758Z,74.86
2022-08-30T21:27:04.832Z,73.54
2022-08-30T21:32:08.299Z,74.35
2022-08-30T21:37:08.894Z,74.19
2022-08-30T21:42:11.970Z,74.76
2022-08-30T21:47:13.931Z,75.47
2022-08-30T21:52:23.878Z,75.42
2022-08-30T21:57:24.817Z,76.15
2022-08-30T22:02:27.074Z,76.28
2022-08-30T22:07:27.889Z,76.58
2022-08-30T22:12:28.674Z,77.42
2022-08-30T22:17:30.623Z,77.97
2022-08-30T22:22:31.262Z,77.96
2022-08-30T22:27:31.936Z,78.85
2022-08-30T22:32:33.863Z,78.59
2022-08-30T22:37:34.475Z,79.11
2022-08-30T22:42:36.186Z,79.27
2022-08-30T22:47:38.111Z,80.31
2022-08-30T22:52:38.962Z,80.72
2022-08-30T22:57:40.745Z,80.58
2022-08-30T23:02:42.858Z,81.37
2022-08-30T23:07:44.156Z,81.58
2022-08-30T23:12:45.217Z,82.23
2022-08-30T23:17:47.163Z,83.27
2022-08-30T23:22:47.603Z,84.11
2022-08-30T23:28:06.079Z,85.03
2022-08-30T23:33:25.737Z,85.02
2022-08-30T23:38:44.144Z,85.70
2022-08-30T23:44:02.092Z,85.94
2022-08-30T23:49:22.291Z,85.93
2022-08-30T23:54:40.617Z,85.56
2022-08-30T23:59:58.904Z,85.28
